createdAt,value
2019-04-22T00:00:16.698Z,10.40
2019-04-22T00:05:25.919Z,10.30
2019-04-22T00:10:39.525Z,10.40
2019-04-22T00:15:28.010Z,10.30
2019-04-22T00:20:35.393Z,10.20
2019-04-22T00:25:53.901Z,10.00
2019-04-22T00:30:22.470Z,9.80
2019-04-22T00:35:18.273Z,9.70
2019-04-22T00:40:25.362Z,9.60
2019-04-22T00:45:19.130Z,9.40
2019-04-22T00:55:12.331Z,9.30
2019-04-22T01:00:08.116Z,9.10
2019-04-22T01:05:00.781Z,9.00
2019-04-22T01:10:07.514Z,9.00
2019-04-22T01:14:57.355Z,8.80
2019-04-22T01:19:56.234Z,8.90
2019-04-22T01:24:48.625Z,9.00
2019-04-22T01:29:37.967Z,8.90
2019-04-22T01:34:33.492Z,9.00
2019-04-22T01:39:43.616Z,9.10
2019-04-22T01:49:38.304Z,9.00
2019-04-22T01:54:35.773Z,8.70
2019-04-22T01:59:20.128Z,8.50
2019-04-22T02:04:31.917Z,8.30
2019-04-22T02:09:31.740Z,8.20
2019-04-22T02:14:20.558Z,8.20
2019-04-22T02:19:19.157Z,8.10
2019-04-22T02:24:15.263Z,8.10
2019-04-22T02:29:06.622Z,8.00
2019-04-22T02:34:22.285Z,8.00
2019-04-22T02:39:07.505Z,8.10
2019-04-22T02:44:12.162Z,8.00
2019-04-22T02:49:13.180Z,8.10
2019-04-22T03:13:47.345Z,7.70
2019-04-22T03:18:53.695Z,7.70
2019-04-22T03:28:44.369Z,7.60
2019-04-22T03:34:09.714Z,7.20
2019-04-22T03:38:35.562Z,7.10
2019-04-22T03:48:33.566Z,7.10
2019-04-22T03:58:01.208Z,6.90
2019-04-22T04:03:07.051Z,6.90
2019-04-22T04:13:03.302Z,6.80
2019-04-22T04:23:05.306Z,6.90
2019-04-22T04:28:11.322Z,7.00
2019-04-22T04:42:47.901Z,7.30
2019-04-22T04:57:33.639Z,11.40
2019-04-22T05:02:30.856Z,12.00
2019-04-22T05:12:25.494Z,11.80
2019-04-22T05:17:16.466Z,14.30
2019-04-22T05:22:05.812Z,16.80
2019-04-22T05:27:05.773Z,17.80
2019-04-22T05:32:03.133Z,18.50
2019-04-22T05:36:57.128Z,20.10
2019-04-22T05:41:48.663Z,21.30
2019-04-22T05:46:39.304Z,22.30
2019-04-22T05:51:42.362Z,23.80
2019-04-22T05:56:37.265Z,24.60
2019-04-22T06:01:47.055Z,25.00
2019-04-22T06:06:28.784Z,27.10
2019-04-22T06:16:31.065Z,27.70
2019-04-22T06:21:31.200Z,27.90
2019-04-22T06:26:30.965Z,28.40
2019-04-22T06:36:21.004Z,29.60
2019-04-22T06:41:17.098Z,30.20
2019-04-22T06:46:11.425Z,31.80
2019-04-22T06:51:04.692Z,33.10
2019-04-22T06:55:59.935Z,33.80
2019-04-22T07:00:59.020Z,34.80
2019-04-22T07:05:52.277Z,34.20
2019-04-22T07:10:48.635Z,34.90
2019-04-22T07:25:40.677Z,35.80
2019-04-22T07:30:41.046Z,36.50
2019-04-22T07:35:51.604Z,37.40
2019-04-22T07:40:40.623Z,39.30
2019-04-22T07:45:32.488Z,38.90
2019-04-22T07:50:39.476Z,37.50
2019-04-22T07:55:25.553Z,36.60
2019-04-22T08:05:12.419Z,37.30
2019-04-22T08:10:17.027Z,36.10
2019-04-22T08:15:05.694Z,36.00
2019-04-22T08:20:05.535Z,35.00
2019-04-22T08:25:10.409Z,35.50
2019-04-22T08:30:06.709Z,35.60
2019-04-22T08:34:47.195Z,35.40
2019-04-22T08:39:52.059Z,34.70
2019-04-22T08:49:57.093Z,35.70
2019-04-22T08:54:44.603Z,36.90
2019-04-22T08:59:37.406Z,35.50
2019-04-22T09:04:31.287Z,35.90
2019-04-22T09:09:36.188Z,36.80
2019-04-22T09:14:40.607Z,37.60
2019-04-22T09:19:32.221Z,37.90
2019-04-22T09:24:29.219Z,36.60
2019-04-22T09:29:29.742Z,36.00
2019-04-22T09:34:23.495Z,36.80
2019-04-22T09:39:26.594Z,36.20
2019-04-22T09:44:08.112Z,36.20
2019-04-22T09:49:21.034Z,37.40
2019-04-22T09:54:16.728Z,40.30
2019-04-22T09:59:02.155Z,39.60
2019-04-22T10:04:00.983Z,38.50
2019-04-22T10:09:22.716Z,37.80
2019-04-22T10:14:01.672Z,39.20
2019-04-22T10:18:52.322Z,39.10
2019-04-22T10:23:45.782Z,37.80
2019-04-22T10:28:45.054Z,37.90
2019-04-22T10:33:38.242Z,38.40
2019-04-22T10:38:14.448Z,39.30
2019-04-22T10:43:11.484Z,39.00
2019-04-22T10:48:10.244Z,38.50
2019-04-22T10:53:08.512Z,36.90
2019-04-22T10:58:04.857Z,35.00
2019-04-22T11:07:59.632Z,37.00
2019-04-22T11:12:52.113Z,35.60
2019-04-22T11:17:49.372Z,35.20
2019-04-22T11:22:44.635Z,34.00
2019-04-22T11:28:00.104Z,29.40
2019-04-22T11:32:55.957Z,25.20
2019-04-22T11:37:50.886Z,22.20
2019-04-22T11:42:46.384Z,20.80
2019-04-22T11:47:41.377Z,19.80
2019-04-22T11:52:37.154Z,19.40
2019-04-22T11:57:32.941Z,19.30
2019-04-22T12:02:47.149Z,19.20
2019-04-22T12:07:43.030Z,19.10
2019-04-22T12:12:39.636Z,19.00
2019-04-22T12:17:34.165Z,19.00
2019-04-22T12:22:31.180Z,19.00
2019-04-22T12:27:27.996Z,19.10
2019-04-22T12:32:23.227Z,19.10
2019-04-22T12:37:27.421Z,19.00
2019-04-22T12:42:17.338Z,18.80
2019-04-22T12:47:13.031Z,18.60
2019-04-22T12:52:21.879Z,18.60
2019-04-22T12:57:08.684Z,18.50
2019-04-22T13:02:04.902Z,18.30
2019-04-22T13:06:59.717Z,18.10
2019-04-22T13:11:55.289Z,18.20
2019-04-22T13:16:51.080Z,18.20
2019-04-22T13:21:46.776Z,18.20
2019-04-22T13:26:42.805Z,17.90
2019-04-22T13:31:38.349Z,17.80
2019-04-22T13:36:34.431Z,17.70
2019-04-22T13:51:45.175Z,17.60
2019-04-22T13:56:34.961Z,17.50
2019-04-22T14:01:10.200Z,17.30
2019-04-22T14:06:08.864Z,17.40
2019-04-22T14:11:19.020Z,17.50
2019-04-22T14:16:04.781Z,17.40
2019-04-22T14:20:58.689Z,17.60
2019-04-22T14:25:54.775Z,17.60
2019-04-22T14:30:50.505Z,17.20
2019-04-22T14:35:47.904Z,17.20
2019-04-22T14:40:43.522Z,17.10
2019-04-22T14:46:08.085Z,17.00
2019-04-22T14:50:56.049Z,17.00
2019-04-22T14:55:36.003Z,17.00
2019-04-22T15:00:29.481Z,16.90
2019-04-22T15:05:26.148Z,16.80
2019-04-22T15:10:22.228Z,16.90
2019-04-22T15:15:42.095Z,16.90
2019-04-22T15:20:48.738Z,16.70
2019-04-22T15:25:44.204Z,16.60
2019-04-22T15:30:39.450Z,16.50
2019-04-22T15:35:35.677Z,16.40
2019-04-22T15:40:31.359Z,16.50
2019-04-22T15:45:25.958Z,16.40
2019-04-22T15:50:20.707Z,16.30
2019-04-22T15:55:18.801Z,16.20
2019-04-22T16:00:29.711Z,16.10
2019-04-22T16:05:14.979Z,16.00
2019-04-22T16:10:12.253Z,15.90
2019-04-22T16:15:09.574Z,15.90
2019-04-22T16:25:02.697Z,15.80
2019-04-22T16:29:59.274Z,15.80
2019-04-22T16:34:54.664Z,15.80
2019-04-22T16:39:50.828Z,15.80
2019-04-22T16:44:47.423Z,15.70
2019-04-22T16:49:43.663Z,15.70
2019-04-22T16:54:40.365Z,15.60
2019-04-22T16:59:35.173Z,15.70
2019-04-22T17:04:38.998Z,15.70
2019-04-22T17:09:34.004Z,15.60
2019-04-22T17:14:37.510Z,15.60
2019-04-22T17:19:24.791Z,15.50
2019-04-22T17:24:19.505Z,15.40
2019-04-22T17:29:16.564Z,15.40
2019-04-22T17:34:13.662Z,15.30
2019-04-22T17:39:24.791Z,15.20
2019-04-22T17:49:45.704Z,15.00
2019-04-22T17:54:38.602Z,14.90
2019-04-22T17:59:32.746Z,14.80
2019-04-22T18:04:10.529Z,14.80
2019-04-22T18:09:41.182Z,14.60
2019-04-22T18:14:43.440Z,14.50
2019-04-22T18:19:27.432Z,14.40
2019-04-22T18:24:07.708Z,14.30
2019-04-22T18:29:16.142Z,14.20
2019-04-22T18:34:08.164Z,14.10
2019-04-22T18:39:20.945Z,14.00
2019-04-22T18:44:11.394Z,13.90
2019-04-22T18:49:03.326Z,13.90
2019-04-22T18:54:00.422Z,13.80
2019-04-22T18:58:49.101Z,13.80
2019-04-22T19:03:46.814Z,13.70
2019-04-22T19:08:50.570Z,13.60
2019-04-22T19:19:10.168Z,13.40
2019-04-22T19:23:40.747Z,13.40
2019-04-22T19:28:37.941Z,13.30
2019-04-22T19:33:28.963Z,13.20
2019-04-22T19:38:19.093Z,13.10
2019-04-22T19:43:30.812Z,13.10
2019-04-22T19:48:32.889Z,13.10
2019-04-22T19:53:27.706Z,13.00
2019-04-22T19:58:17.709Z,12.90
2019-04-22T20:03:29.695Z,12.70
2019-04-22T20:08:19.921Z,12.60
2019-04-22T20:13:22.459Z,12.50
2019-04-22T20:18:31.693Z,12.40
2019-04-22T20:23:08.315Z,12.50
2019-04-22T20:28:10.144Z,12.50
2019-04-22T20:32:59.499Z,12.30
2019-04-22T20:38:02.891Z,12.30
2019-04-22T20:43:04.453Z,12.20
2019-04-22T20:47:47.851Z,12.20
2019-04-22T20:52:54.284Z,12.20
2019-04-22T20:57:49.756Z,12.10
2019-04-22T21:02:32.665Z,11.90
2019-04-22T21:07:36.181Z,11.70
2019-04-22T21:12:23.277Z,11.60
2019-04-22T21:17:33.083Z,11.50
2019-04-22T21:22:26.042Z,11.50
2019-04-22T21:27:32.743Z,11.40
2019-04-22T21:32:24.006Z,11.30
2019-04-22T21:37:26.709Z,11.30
2019-04-22T21:42:12.749Z,11.30
2019-04-22T21:47:17.744Z,11.20
2019-04-22T21:52:05.342Z,11.20
2019-04-22T22:02:25.777Z,10.90
2019-04-22T22:06:54.577Z,10.80
2019-04-22T22:11:56.451Z,10.80
2019-04-22T22:16:47.318Z,10.80
2019-04-22T22:21:56.999Z,11.00
2019-04-22T22:26:50.674Z,11.00
2019-04-22T22:31:52.875Z,11.00
2019-04-22T22:36:36.641Z,11.10
2019-04-22T22:41:21.640Z,11.10
2019-04-22T22:46:29.307Z,11.20
2019-04-22T22:51:39.980Z,11.20
2019-04-22T22:56:36.869Z,11.20
2019-04-22T23:01:31.749Z,11.30
2019-04-22T23:06:34.011Z,11.30
2019-04-22T23:11:40.462Z,11.30
2019-04-22T23:16:10.421Z,11.40
2019-04-22T23:20:55.451Z,11.40
2019-04-22T23:26:09.073Z,11.40
2019-04-22T23:31:13.985Z,11.40
2019-04-22T23:36:22.869Z,11.40
2019-04-22T23:46:48.900Z,11.30
2019-04-22T23:51:55.584Z,11.30
2019-04-22T23:56:39.512Z,11.10
